.
WxDataArchive / Data Records for 2007-07-19
2007-07-18 July 2007 2007-07-20

Data Records for Thursday, 19 July 2007

Time	Temp	Chill	HIndex	Humid	Dewpt	 Wind 	HiWind	WindDir	Rain 	Barom 
-----	----	-----	------	-----	-----	------	------	-------	-----	----- 
00:00	68.4	68.4	68.4	97	67.5	0	0	---	0.00	29.780 
00:05	68.4	68.4	68.4	98	67.8	0	1	248	0.00	29.778 
00:10	68.4	68.4	68.4	98	67.8	0	1	248	0.01	29.779 
00:15	68.4	68.4	68.4	98	67.8	0	1	248	0.01	29.780 
00:20	68.4	68.4	68.4	98	67.8	1	2	270	0.01	29.783 
00:25	68.4	68.4	68.4	98	67.8	1	2	270	0.01	29.789 
00:30	68.4	68.4	68.4	98	67.8	1	2	270	0.02	29.781 
00:35	68.4	68.4	68.4	98	67.8	0	2	270	0.01	29.776 
00:40	68.3	68.3	68.3	98	67.7	0	3	270	0.01	29.765 
00:45	68.3	68.3	68.3	98	67.7	0	3	315	0.02	29.762 
00:50	68.3	68.3	68.3	98	67.7	1	4	315	0.02	29.751 
00:55	68.3	68.3	68.3	98	67.7	0	1	315	0.01	29.745 
01:00	68.3	68.3	68.3	98	67.7	0	1	315	0.02	29.742 
01:05	68.3	68.3	68.3	98	67.7	0	1	315	0.02	29.741 
01:10	68.3	68.3	68.3	98	67.7	1	3	315	0.01	29.735 
01:15	68.3	68.3	68.3	98	67.7	0	2	315	0.02	29.733 
01:20	68.3	68.3	68.3	98	67.7	0	1	315	0.01	29.737 
01:25	68.3	68.3	68.3	98	67.7	0	2	315	0.01	29.744 
01:30	68.3	68.3	68.3	98	67.7	0	2	315	0.01	29.756 
01:35	68.3	68.3	68.3	98	67.7	1	4	248	0.01	29.759 
01:40	68.3	68.3	68.3	98	67.7	1	2	248	0.01	29.755 
01:45	68.3	68.3	68.3	98	67.7	1	3	248	0.01	29.758 
01:50	68.3	68.3	68.3	98	67.7	1	2	248	0.00	29.758 
01:55	68.3	68.3	68.3	98	67.7	0	2	248	0.01	29.746 
02:00	68.3	68.3	68.3	98	67.7	0	1	248	0.00	29.729 
02:05	68.3	68.3	68.3	98	67.7	0	1	248	0.01	29.711 
02:10	68.1	68.1	68.1	98	67.5	0	1	248	0.00	29.703 
02:15	68.1	68.1	68.1	98	67.5	0	1	248	0.01	29.708 
02:20	68.1	68.1	68.1	98	67.5	0	1	248	0.00	29.696 
02:25	68.1	68.1	68.1	98	67.5	0	1	248	0.00	29.681 
02:30	68.1	68.1	68.1	98	67.5	0	1	248	0.00	29.679 
02:35	68.1	68.1	68.1	98	67.5	0	2	248	0.00	29.674 
02:40	68.1	68.1	68.1	98	67.5	0	2	135	0.00	29.668 
02:45	68.1	68.1	68.1	98	67.5	1	4	270	0.00	29.677 
02:50	68.3	68.3	68.3	98	67.7	1	5	248	0.00	29.679 
02:55	68.3	68.3	68.3	98	67.7	2	5	248	0.00	29.681 
03:00	68.3	68.3	68.3	98	67.7	2	5	248	0.00	29.693 
03:05	68.3	68.3	68.3	98	67.7	1	4	270	0.00	29.694 
03:10	68.3	68.3	68.3	98	67.7	1	5	315	0.00	29.697 
03:15	68.1	68.1	68.1	98	67.5	1	5	248	0.00	29.698 
03:20	68.1	68.1	68.1	98	67.5	1	2	248	0.00	29.691 
03:25	68.1	68.1	68.1	98	67.5	1	4	248	0.00	29.681 
03:30	67.9	67.9	67.9	98	67.3	1	2	270	0.00	29.681 
03:35	67.9	67.9	67.9	98	67.3	0	1	270	0.00	29.678 
03:40	67.9	67.9	67.9	98	67.3	1	3	270	0.00	29.691 
03:45	67.9	67.9	67.9	98	67.3	0	1	270	0.00	29.695 
03:50	67.9	67.9	67.9	98	67.3	0	1	270	0.00	29.694 
03:55	67.9	67.9	67.9	98	67.3	0	2	270	0.00	29.697 
04:00	67.9	67.9	67.9	98	67.3	0	1	270	0.00	29.701 
04:05	67.9	67.9	67.9	98	67.3	0	1	270	0.00	29.701 
04:10	67.8	67.8	67.8	98	67.2	0	1	270	0.00	29.709 
04:15	67.8	67.8	67.8	98	67.2	0	1	270	0.00	29.711 
04:20	67.8	67.8	67.8	98	67.2	0	1	270	0.00	29.713 
04:25	67.8	67.8	67.8	98	67.2	0	2	270	0.00	29.714 
04:30	67.8	67.8	67.8	98	67.2	0	2	270	0.00	29.717 
04:35	67.6	67.6	67.6	98	67.0	0	1	270	0.00	29.723 
04:40	67.6	67.6	67.6	98	67.0	0	1	270	0.00	29.725 
04:45	67.6	67.6	67.6	99	67.3	0	1	270	0.00	29.722 
04:50	67.4	67.4	67.4	99	67.1	0	2	270	0.00	29.724 
04:55	67.4	67.4	67.4	98	66.8	1	2	270	0.00	29.728 
05:00	67.3	67.3	67.3	98	66.7	0	2	270	0.00	29.723 
05:05	67.3	67.3	67.3	98	66.7	0	1	270	0.00	29.724 
05:10	67.3	67.3	67.3	99	67.0	0	1	270	0.00	29.721 
05:15	67.3	67.3	67.3	99	67.0	0	2	270	0.00	29.727 
05:20	67.3	67.3	67.3	99	67.0	0	1	270	0.00	29.727 
05:25	67.3	67.3	67.3	99	67.0	0	1	270	0.00	29.728 
05:30	67.3	67.3	67.3	99	67.0	0	1	270	0.00	29.726 
05:35	67.3	67.3	67.3	99	67.0	0	2	270	0.00	29.730 
05:40	67.3	67.3	67.3	99	67.0	0	1	270	0.00	29.729 
05:45	67.3	67.3	67.3	99	67.0	0	1	270	0.00	29.730 
05:50	67.3	67.3	67.3	99	67.0	0	1	270	0.00	29.733 
05:55	67.3	67.3	67.3	99	67.0	0	2	270	0.00	29.733 
06:00	67.3	67.3	67.3	99	67.0	0	1	270	0.00	29.735 
06:05	67.4	67.4	67.4	99	67.1	1	2	270	0.00	29.736 
06:10	67.4	67.4	67.4	99	67.1	1	2	270	0.00	29.735 
06:15	67.4	67.4	67.4	99	67.1	1	3	270	0.00	29.736 
06:20	67.6	67.6	67.6	99	67.3	1	3	248	0.00	29.736 
06:25	67.6	67.6	67.6	99	67.3	1	3	248	0.00	29.734 
06:30	67.8	67.8	67.8	99	67.5	1	3	270	0.00	29.733 
06:35	67.8	67.8	67.8	99	67.5	1	4	270	0.00	29.734 
06:40	67.9	67.9	67.9	99	67.6	0	2	270	0.00	29.736 
06:45	67.9	67.9	67.9	99	67.6	1	3	270	0.00	29.744 
06:50	68.1	68.1	68.1	98	67.5	1	3	270	0.00	29.742 
06:55	68.1	68.1	68.1	98	67.5	1	3	270	0.00	29.744 
07:00	68.3	68.3	68.3	98	67.7	1	2	248	0.00	29.746 
07:05	68.3	68.3	68.3	98	67.7	1	2	248	0.00	29.748 
07:10	68.4	68.4	68.4	98	67.8	1	2	248	0.00	29.746 
07:15	68.4	68.4	68.4	98	67.8	1	3	248	0.00	29.746 
07:20	68.6	68.6	68.6	98	68.0	1	2	248	0.00	29.746 
07:25	68.8	68.8	68.8	98	68.2	0	1	248	0.00	29.745 
07:30	68.8	68.8	68.8	98	68.2	0	2	248	0.00	29.744 
07:35	68.8	68.8	68.8	98	68.2	1	3	248	0.00	29.743 
07:40	68.8	68.8	68.8	98	68.2	1	6	270	0.00	29.740 
07:45	68.8	68.8	68.8	98	68.2	1	3	270	0.00	29.744 
07:50	68.8	68.8	68.8	98	68.2	1	4	270	0.00	29.742 
07:55	68.8	68.8	68.8	98	68.2	1	4	315	0.00	29.745 
08:00	68.8	68.8	68.8	98	68.2	2	4	248	0.00	29.745 
08:05	68.6	68.6	68.6	98	68.0	2	5	248	0.00	29.746 
08:10	68.8	68.8	68.8	98	68.2	1	4	270	0.00	29.742 
08:15	68.8	68.8	68.8	97	67.9	1	4	248	0.00	29.737 
08:20	68.8	68.8	68.8	97	67.9	1	4	270	0.00	29.736 
08:25	68.8	68.8	68.8	97	67.9	2	6	270	0.00	29.734 
08:30	68.8	68.8	68.8	97	67.9	2	4	248	0.00	29.735 
08:35	68.9	68.9	68.9	97	68.0	1	4	248	0.00	29.736 
08:40	68.9	68.9	68.9	97	68.0	1	3	248	0.00	29.737 
08:45	68.9	68.9	68.9	97	68.0	2	4	270	0.00	29.736 
08:50	69.1	69.1	69.1	97	68.2	2	5	270	0.00	29.735 
08:55	69.1	69.1	69.1	96	67.9	1	2	270	0.00	29.734 
09:00	69.3	69.3	69.3	96	68.1	1	3	292	0.00	29.732 
09:05	69.3	69.3	69.3	96	68.1	1	4	292	0.00	29.736 
09:10	69.4	69.4	69.4	96	68.2	1	3	248	0.00	29.740 
09:15	69.6	69.6	69.6	96	68.4	1	3	292	0.00	29.737 
09:20	69.6	69.6	69.6	96	68.4	1	2	292	0.00	29.734 
09:25	69.8	69.8	69.8	96	68.6	1	3	292	0.00	29.733 
09:30	69.9	69.9	69.9	96	68.7	1	2	292	0.00	29.733 
09:35	69.9	69.9	69.9	96	68.7	1	3	248	0.00	29.733 
09:40	70.1	70.1	70.1	100	70.1	1	3	292	0.00	29.733 
09:45	70.1	70.1	70.1	96	68.9	1	3	248	0.00	29.726 
09:50	70.3	70.3	70.3	95	68.8	1	4	338	0.00	29.725 
09:55	70.3	70.3	70.3	95	68.8	1	2	338	0.00	29.722 
10:00	70.4	70.4	70.4	95	68.9	1	3	270	0.00	29.730 
10:05	70.4	70.4	70.4	95	68.9	1	4	270	0.00	29.739 
10:10	70.6	70.6	70.6	94	68.8	1	4	315	0.00	29.742 
10:15	70.6	70.6	70.6	94	68.8	1	4	248	0.00	29.742 
10:20	70.6	70.6	70.6	94	68.8	2	5	248	0.00	29.740 
10:25	70.8	70.8	70.8	94	69.0	2	3	270	0.00	29.738 
10:30	70.8	70.8	70.8	94	69.0	1	3	292	0.00	29.738 
10:35	70.9	70.9	70.9	94	69.1	2	5	270	0.00	29.738 
10:40	70.9	70.9	70.9	94	69.1	2	4	248	0.00	29.740 
10:45	71.1	71.1	71.1	93	69.0	2	5	292	0.00	29.740 
10:50	71.1	71.1	71.1	93	69.0	2	4	270	0.00	29.741 
10:55	71.3	71.3	71.3	93	69.2	2	3	248	0.00	29.745 
11:00	71.5	71.5	71.5	92	69.0	3	7	270	0.00	29.745 
11:05	71.6	71.6	71.6	92	69.1	2	5	315	0.00	29.751 
11:10	71.6	71.6	71.6	92	69.1	2	4	270	0.00	29.753 
11:15	71.6	71.6	71.6	92	69.1	2	4	248	0.00	29.752 
11:20	71.8	71.8	71.8	92	69.3	1	4	248	0.00	29.751 
11:25	72.0	72.0	72.0	91	69.2	2	4	248	0.00	29.745 
11:30	72.3	72.3	72.3	91	69.5	1	4	248	0.00	29.745 
11:35	72.5	72.5	72.5	90	69.4	2	4	270	0.00	29.744 
11:40	72.8	72.8	72.8	89	69.4	2	5	270	0.00	29.744 
11:45	73.2	73.2	73.2	88	69.4	2	5	270	0.00	29.742 
11:50	73.3	73.3	73.3	88	69.5	1	3	248	0.00	29.741 
11:55	73.5	73.5	73.5	87	69.4	2	4	248	0.00	29.742 
12:00	73.7	73.7	73.7	85	68.9	2	4	270	0.00	29.741 
12:05	74.0	74.0	74.0	84	68.8	2	5	315	0.00	29.740 
12:10	74.0	74.0	74.0	84	68.8	2	5	315	0.00	29.745 
12:15	74.0	74.0	74.0	84	68.8	1	4	270	0.00	29.747 
12:20	73.9	73.9	73.9	84	68.7	2	5	270	0.00	29.740 
12:25	74.0	74.0	74.0	84	68.8	2	3	315	0.00	29.737 
12:30	74.2	74.2	74.2	84	69.0	1	3	315	0.00	29.734 
12:35	74.6	74.6	74.6	83	69.1	1	3	338	0.00	29.736 
12:40	75.1	75.1	75.5	82	69.2	1	4	292	0.00	29.735 
12:45	75.4	75.4	76.0	81	69.1	1	4	270	0.00	29.737 
12:50	75.6	75.6	76.3	81	69.3	1	4	270	0.00	29.735 
12:55	75.8	75.8	76.6	81	69.5	1	3	270	0.00	29.736 
13:00	75.6	75.6	76.2	82	69.7	1	3	270	0.00	29.736 
13:05	75.8	75.8	76.6	81	69.5	1	3	248	0.00	29.736 
13:10	76.3	76.3	77.5	80	69.7	2	5	270	0.00	29.735 
13:15	76.7	76.7	78.1	80	70.0	1	3	270	0.00	29.724 
13:20	77.2	77.2	78.9	79	70.2	2	5	270	0.00	29.722 
13:25	77.2	77.2	79.0	77	69.4	2	4	270	0.00	29.727 
13:30	76.0	76.0	76.8	82	70.1	1	3	270	0.12	29.737 
13:35	74.6	74.6	74.6	86	70.1	0	3	270	0.24	29.746 
13:40	73.3	73.3	73.3	90	70.2	1	5	112	0.19	29.749 
13:45	71.8	71.8	71.8	88	68.0	1	3	112	0.03	29.749 
13:50	70.9	70.9	70.9	90	67.8	0	0	---	0.00	29.748 
13:55	70.6	70.6	70.6	92	68.2	0	1	270	0.01	29.740 
14:00	70.6	70.6	70.6	93	68.5	0	2	270	0.00	29.739 
14:05	70.9	70.9	70.9	93	68.8	0	1	270	0.00	29.739 
14:10	71.1	71.1	71.1	92	68.7	0	1	270	0.00	29.739 
14:15	71.5	71.5	71.5	92	69.0	0	0	---	0.00	29.739 
14:20	71.5	71.5	71.5	93	69.4	0	0	---	0.00	29.738 
14:25	71.5	71.5	71.5	93	69.4	0	1	270	0.00	29.737 
14:30	71.8	71.8	71.8	93	69.7	0	1	270	0.00	29.738 
14:35	72.3	72.3	72.3	94	70.5	0	1	270	0.00	29.739 
14:40	72.3	72.3	72.3	93	70.2	0	2	270	0.00	29.736 
14:45	72.3	72.3	72.3	93	70.2	0	2	270	0.01	29.735 
14:50	72.7	72.7	72.7	94	70.9	0	2	270	0.00	29.733 
14:55	73.7	73.7	73.7	95	72.2	1	2	270	0.00	29.731 
15:00	74.6	74.6	74.6	95	73.1	0	2	270	0.00	29.730 
15:05	75.1	75.1	73.6	94	73.2	1	2	270	0.00	29.728 
15:10	75.6	75.6	74.7	94	73.7	1	2	270	0.00	29.725 
15:15	75.6	75.6	75.0	92	73.1	1	2	292	0.00	29.724 
15:20	75.4	75.4	75.0	89	71.9	1	4	292	0.00	29.727 
15:25	75.4	75.4	75.0	89	71.9	0	2	270	0.00	29.729 
15:30	75.4	75.4	74.8	90	72.3	0	2	270	0.00	29.727 
15:35	76.1	76.1	76.3	90	72.9	1	4	270	0.00	29.725 
15:40	77.0	77.0	78.3	88	73.2	1	3	315	0.00	29.728 
15:45	77.7	77.7	79.8	85	72.8	2	5	270	0.00	29.724 
15:50	78.3	78.3	80.7	77	70.5	1	3	270	0.00	29.725 
15:55	78.3	78.3	80.5	71	68.1	3	6	292	0.00	29.727 
16:00	78.1	78.1	80.1	69	67.1	3	10	292	0.00	29.731 
16:05	78.1	78.1	80.1	68	66.7	3	7	292	0.00	29.736 
16:10	78.1	78.1	80.2	70	67.5	2	5	0	0.00	29.735 
16:15	78.5	78.5	80.7	70	67.9	2	4	292	0.00	29.733 
16:20	79.0	79.0	81.1	66	66.6	2	5	292	0.00	29.735 
16:25	78.6	78.6	80.5	64	65.4	2	5	270	0.00	29.735 
16:30	78.5	78.5	80.4	64	65.3	2	5	315	0.00	29.734 
16:35	78.8	78.8	80.6	62	64.7	3	7	292	0.00	29.735 
16:40	78.8	78.8	80.6	62	64.7	2	7	315	0.00	29.733 
16:45	78.8	78.8	80.7	63	65.1	2	10	292	0.00	29.735 
16:50	79.0	79.0	80.8	62	64.8	2	6	315	0.00	29.734 
16:55	78.8	78.8	80.5	61	64.2	2	9	315	0.00	29.734 
17:00	78.8	78.8	80.7	63	65.1	1	4	315	0.00	29.732 
17:05	79.0	79.0	80.5	58	62.9	2	7	315	0.00	29.735 
17:10	79.0	79.0	80.5	58	62.9	2	5	292	0.00	29.737 
17:15	78.8	78.8	80.1	54	60.7	3	9	292	0.00	29.736 
17:20	78.6	78.6	79.9	54	60.5	2	7	338	0.00	29.736 
17:25	78.5	78.5	79.9	55	61.0	1	5	338	0.00	29.737 
17:30	78.5	78.5	80.0	57	62.0	1	3	292	0.00	29.737 
17:35	78.5	78.5	80.0	58	62.5	2	5	270	0.00	29.737 
17:40	78.3	78.3	79.9	58	62.3	1	3	292	0.00	29.739 
17:45	78.3	78.3	79.9	58	62.3	1	2	338	0.00	29.739 
17:50	78.1	78.1	79.7	58	62.1	1	3	315	0.00	29.739 
17:55	78.1	78.1	79.5	53	59.6	2	5	315	0.00	29.744 
18:00	77.9	77.9	79.3	52	58.8	1	3	270	0.00	29.749 
18:05	77.9	77.9	79.3	52	58.8	1	2	292	0.00	29.749 
18:10	77.7	77.7	79.1	52	58.6	1	4	315	0.00	29.749 
18:15	77.7	77.7	79.2	53	59.2	1	3	315	0.00	29.753 
18:20	77.4	77.4	79.0	54	59.4	1	4	315	0.00	29.755 
18:25	77.0	77.0	78.7	53	58.5	1	4	292	0.00	29.756 
18:30	76.8	76.8	78.5	52	57.8	1	3	315	0.00	29.758 
18:35	76.7	76.7	78.5	53	58.3	1	5	315	0.00	29.762 
18:40	76.5	76.5	78.4	53	58.1	2	3	292	0.00	29.766 
18:45	76.3	76.3	78.3	54	58.4	1	3	315	0.00	29.763 
18:50	76.1	76.1	78.1	54	58.2	1	5	315	0.00	29.766 
18:55	76.1	76.1	78.1	55	58.7	1	4	315	0.00	29.768 
19:00	76.0	76.0	78.1	57	59.6	1	3	292	0.00	29.770 
19:05	75.8	75.8	77.9	56	59.0	1	3	292	0.00	29.771 
19:10	75.4	75.4	77.7	57	59.1	1	3	315	0.00	29.773 
19:15	75.3	75.3	77.6	58	59.5	1	3	315	0.00	29.778 
19:20	74.9	74.9	74.9	59	59.6	1	3	270	0.00	29.783 
19:25	74.6	74.6	74.6	59	59.3	1	4	315	0.00	29.786 
19:30	74.4	74.4	74.4	60	59.6	1	4	315	0.00	29.792 
19:35	74.0	74.0	74.0	61	59.7	1	3	270	0.00	29.801 
19:40	73.9	73.9	73.9	62	60.0	0	2	315	0.00	29.802 
19:45	73.5	73.5	73.5	63	60.1	0	2	270	0.00	29.806 
19:50	73.2	73.2	73.2	63	59.8	1	4	270	0.00	29.811 
19:55	72.8	72.8	72.8	64	59.9	0	1	292	0.00	29.814 
20:00	72.5	72.5	72.5	64	59.6	0	1	292	0.00	29.817 
20:05	72.1	72.1	72.1	65	59.7	0	1	292	0.00	29.819 
20:10	71.8	71.8	71.8	65	59.4	0	1	292	0.00	29.820 
20:15	71.5	71.5	71.5	62	57.8	0	1	292	0.00	29.821 
20:20	71.1	71.1	71.1	58	55.6	0	2	202	0.00	29.822 
20:25	70.9	70.9	70.9	58	55.4	0	1	270	0.00	29.828 
20:30	70.6	70.6	70.6	53	52.6	0	2	338	0.00	29.831 
20:35	70.4	70.4	70.4	53	52.4	0	1	338	0.00	29.835 
20:40	70.3	70.3	70.3	52	51.8	0	1	338	0.00	29.838 
20:45	69.9	69.9	69.9	50	50.4	0	1	338	0.00	29.839 
20:50	69.8	69.8	69.8	50	50.3	0	2	338	0.00	29.843 
20:55	69.4	69.4	69.4	50	49.9	0	1	338	0.00	29.848 
21:00	69.3	69.3	69.3	51	50.4	0	1	338	0.00	29.853 
21:05	69.1	69.1	69.1	52	50.7	0	1	338	0.00	29.857 
21:10	68.6	68.6	68.6	52	50.3	0	2	338	0.00	29.858 
21:15	68.4	68.4	68.4	51	49.6	0	2	315	0.00	29.864 
21:20	68.1	68.1	68.1	52	49.8	0	1	315	0.00	29.868 
21:25	67.6	67.6	67.6	54	50.4	0	1	315	0.00	29.870 
21:30	67.4	67.4	67.4	57	51.6	0	1	315	0.00	29.873 
21:35	67.3	67.3	67.3	60	52.9	0	2	315	0.00	29.875 
21:40	67.1	67.1	67.1	62	53.6	0	1	292	0.00	29.878 
21:45	66.8	66.8	66.8	63	53.8	0	1	292	0.00	29.880 
21:50	66.6	66.6	66.6	64	54.0	0	2	292	0.00	29.885 
21:55	66.3	66.3	66.3	64	53.7	0	2	292	0.00	29.886 
22:00	66.1	66.1	66.1	65	54.0	0	2	292	0.00	29.887 
22:05	66.0	66.0	66.0	65	53.9	0	1	292	0.00	29.886 
22:10	65.6	65.6	65.6	66	53.9	0	1	292	0.00	29.889 
22:15	65.5	65.5	65.5	66	53.8	0	1	292	0.00	29.890 
22:20	65.3	65.3	65.3	65	53.2	0	3	315	0.00	29.894 
22:25	65.2	65.2	65.2	66	53.5	0	1	315	0.00	29.898 
22:30	65.0	65.0	65.0	66	53.4	0	1	315	0.00	29.899 
22:35	64.7	64.7	64.7	66	53.1	0	1	315	0.00	29.900 
22:40	64.5	64.5	64.5	67	53.3	0	2	315	0.00	29.901 
22:45	64.2	64.2	64.2	66	52.6	0	3	315	0.00	29.902 
22:50	64.0	64.0	64.0	66	52.4	0	2	270	0.00	29.902 
22:55	64.0	64.0	64.0	65	52.0	0	1	292	0.00	29.902 
23:00	63.9	63.9	63.9	66	52.3	0	2	292	0.00	29.903 
23:05	63.5	63.5	63.5	65	51.5	0	1	292	0.00	29.903 
23:10	63.4	63.4	63.4	65	51.4	0	1	292	0.00	29.906 
23:15	63.2	63.2	63.2	65	51.2	0	3	292	0.00	29.908 
23:20	63.1	63.1	63.1	66	51.6	0	2	292	0.00	29.913 
23:25	63.1	63.1	63.1	66	51.6	0	1	292	0.00	29.916 
23:30	62.7	62.7	62.7	67	51.6	0	1	292	0.00	29.918 
23:35	62.4	62.4	62.4	67	51.3	0	1	292	0.00	29.919 
23:40	62.3	62.3	62.3	68	51.6	0	1	292	0.00	29.919 
23:45	62.0	62.0	62.0	69	51.7	0	1	292	0.00	29.919 
23:50	61.6	61.6	61.6	69	51.3	0	1	292	0.00	29.919 
23:55	61.5	61.5	61.5	70	51.6	0	1	292	0.00	29.919 

CoCoRaHS
IN-AL-39
A2 Web Hosting
Creative Commons License
GoDaddy
Look for:

loaded 2017-10-17 00:32:32 • last modified 2010-11-18 10:43:29
Privacy PolicyDisclaimer
• wx.awcolley.com is powered by PmWiki v.2002016 •
• all content (unless otherwise noted) © 2017 A W Colley